createdAt,value
2023-03-05T00:11:50.058Z,79.03
2023-03-05T00:26:49.931Z,85.21
2023-03-05T00:41:49.757Z,91.12
2023-03-05T00:56:49.612Z,92.31
2023-03-05T01:11:49.443Z,90.44
2023-03-05T01:26:49.304Z,87.30
2023-03-05T01:41:49.117Z,83.76
2023-03-05T01:56:48.954Z,78.66
2023-03-05T02:11:48.790Z,75.01
2023-03-05T02:26:48.636Z,73.07
2023-03-05T02:41:48.487Z,70.46
2023-03-05T02:56:48.333Z,70.18
2023-03-05T03:11:48.180Z,70.70
2023-03-05T03:26:48.043Z,71.12
2023-03-05T03:41:47.909Z,71.33
2023-03-05T03:56:47.727Z,70.70
2023-03-05T04:11:47.616Z,72.16
2023-03-05T04:26:47.419Z,74.46
2023-03-05T04:41:48.221Z,76.26
2023-03-05T04:56:47.105Z,77.55
2023-03-05T05:11:47.028Z,78.39
2023-03-05T05:26:46.847Z,79.01
2023-03-05T05:41:46.683Z,80.41
2023-03-05T05:56:46.544Z,81.24
2023-03-05T06:11:46.398Z,81.73
2023-03-05T06:26:46.243Z,81.62
2023-03-05T06:41:46.124Z,81.27
2023-03-05T06:56:46.998Z,80.68
2023-03-05T07:11:45.817Z,78.49
2023-03-05T07:26:47.430Z,76.99
2023-03-05T07:41:45.556Z,75.32
2023-03-05T07:56:45.345Z,73.42
2023-03-05T08:11:45.178Z,74.01
2023-03-05T08:26:45.009Z,71.92
2023-03-05T08:41:44.862Z,69.23
2023-03-05T08:56:44.699Z,66.35
2023-03-05T09:11:44.631Z,64.11
2023-03-05T09:26:44.388Z,60.31
2023-03-05T09:41:44.239Z,60.26
2023-03-05T09:56:44.076Z,62.60
2023-03-05T10:11:43.946Z,60.81
2023-03-05T10:26:43.784Z,60.86
2023-03-05T10:41:43.645Z,60.13
2023-03-05T10:56:43.495Z,63.93
2023-03-05T11:11:43.375Z,64.52
2023-03-05T11:26:43.306Z,63.51
2023-03-05T11:41:43.224Z,64.73
2023-03-05T11:56:43.083Z,64.56
2023-03-05T12:11:42.731Z,73.35
2023-03-05T12:26:43.010Z,72.31
2023-03-05T12:41:42.949Z,64.77
2023-03-05T12:56:42.262Z,64.12
2023-03-05T13:11:42.137Z,64.23
2023-03-05T13:26:41.894Z,62.36
2023-03-05T13:41:41.747Z,57.28
2023-03-05T13:56:41.568Z,58.31
2023-03-05T14:11:41.460Z,62.59
2023-03-05T14:26:41.254Z,66.74
2023-03-05T14:41:41.176Z,64.94
2023-03-05T14:56:41.767Z,62.96
2023-03-05T15:11:40.811Z,63.48
2023-03-05T15:26:40.613Z,62.68
2023-03-05T15:41:41.187Z,63.85
2023-03-05T15:56:40.372Z,64.79
2023-03-05T16:11:40.163Z,67.00
2023-03-05T16:26:41.117Z,67.24
2023-03-05T16:41:39.827Z,67.03
2023-03-05T16:56:39.668Z,68.94
2023-03-05T17:11:39.570Z,67.69
2023-03-05T17:26:40.294Z,68.73
2023-03-05T17:41:39.380Z,70.40
2023-03-05T17:56:39.144Z,71.16
2023-03-05T18:11:38.870Z,72.09
2023-03-05T18:26:38.802Z,72.02
2023-03-05T18:41:38.540Z,73.17
2023-03-05T18:56:38.407Z,75.08
2023-03-05T19:11:38.328Z,74.04
2023-03-05T19:26:38.119Z,74.60
2023-03-05T19:41:37.921Z,75.01
2023-03-05T19:56:37.747Z,76.37
2023-03-05T20:11:37.734Z,78.14
2023-03-05T20:26:37.485Z,80.13
2023-03-05T20:41:37.339Z,82.21
2023-03-05T20:56:37.160Z,85.24
2023-03-05T21:11:37.119Z,86.91
2023-03-05T21:26:36.841Z,90.18
2023-03-05T21:41:36.685Z,92.79
2023-03-05T21:56:36.581Z,91.96
2023-03-05T22:11:36.361Z,94.19
2023-03-05T22:26:36.215Z,95.86
2023-03-05T22:41:36.046Z,97.37
2023-03-05T22:56:35.892Z,98.72
2023-03-05T23:11:35.781Z,99.99
2023-03-05T23:26:35.628Z,99.82
2023-03-05T23:41:35.497Z,99.99
2023-03-05T23:56:35.312Z,99.99
